»·PEaware :: N2442P KSBA-KAVX

N2442P :: KSBA-KAVX

FLIGHT INFORMATION

Flight Status: Arrived
Operator: Privately registered:
United States
More flights under this callsign
Pilot: Ken Q. (14290)
Aircraft: MOONEY M-20K/M ENCORE BRAVO
(M20T)
More flights by this aircraft type
Origin: KSBA Santa Barbara Mun
United States
Destination: KAVX Catalina
United States
More flights between these airports :: More routes between these airports
Route: VTU SXC
File this flight plan on PilotEdge
Remarks:
Altitude:
(Current/Filed)
3,500ft
Speed:
(Current/Filed)
175kts
Departed: 06-Feb-21 02:11 PM
Arrived: 06-Feb-21 02:56 PM
Distance/Time
Traveled:
0nm/0:45
Distance/Time
To Go:
Arrived

Flight Plot

Page will automatically refresh every two minutes.

Flight plan parsing failed; only flown route is shown


Map Options




Map Legend


Flown Route
Filed Route
Departure Airport
Arrival Airport
Navaid (VOR, NDB)
Fix

Horizontal Profiles

Position Reports

Time Latitude Longitude Heading Altitude Ground
Speed
06-Feb-21 13:36 34.423131 -119.835986 166 13ft 0kts
06-Feb-21 13:37 34.423131 -119.835986 166 13ft 0kts
06-Feb-21 13:38 34.423131 -119.835986 166 13ft 0kts
06-Feb-21 13:39 34.423131 -119.835986 166 13ft 0kts
06-Feb-21 13:40 34.423131 -119.835986 166 13ft 0kts
06-Feb-21 13:41 34.423131 -119.835986 166 13ft 0kts
06-Feb-21 13:42 34.423131 -119.835986 166 13ft 0kts
06-Feb-21 13:43 34.423131 -119.835986 166 13ft 0kts
06-Feb-21 13:44 34.423131 -119.835986 166 13ft 0kts
06-Feb-21 13:45 34.423131 -119.835986 166 13ft 0kts
06-Feb-21 13:46 34.423131 -119.835986 166 13ft 0kts
06-Feb-21 13:47 34.423131 -119.835986 166 13ft 0kts
06-Feb-21 13:48 34.423131 -119.835986 166 13ft 0kts
06-Feb-21 13:49 34.423131 -119.835986 166 13ft 0kts
06-Feb-21 13:50 34.423131 -119.835986 166 13ft 0kts
06-Feb-21 13:51 34.423131 -119.835986 166 13ft 0kts
06-Feb-21 13:52 34.423130 -119.835986 166 13ft 0kts
06-Feb-21 13:53 34.423129 -119.835986 166 13ft 0kts
06-Feb-21 13:54 34.423129 -119.835986 166 13ft 0kts
06-Feb-21 13:55 34.423128 -119.835985 166 13ft 0kts
06-Feb-21 13:56 34.423128 -119.835985 166 13ft 0kts
06-Feb-21 13:57 34.423127 -119.835985 166 13ft 0kts
06-Feb-21 13:58 34.423127 -119.835985 166 13ft 0kts
06-Feb-21 13:59 34.423126 -119.835985 166 13ft 0kts
06-Feb-21 14:00 34.423125 -119.835985 166 13ft 0kts
06-Feb-21 14:01 34.423125 -119.835985 166 13ft 0kts
06-Feb-21 14:02 34.423124 -119.835984 166 13ft 0kts
06-Feb-21 14:03 34.422986 -119.836142 252 13ft 1kts
06-Feb-21 14:04 34.424176 -119.837556 345 13ft 16kts
06-Feb-21 14:05 34.426792 -119.835338 80 13ft 2kts
06-Feb-21 14:06 34.426793 -119.835328 79 13ft 0kts
06-Feb-21 14:07 34.427052 -119.834925 1 13ft 0kts
06-Feb-21 14:08 34.427054 -119.834925 1 13ft 0kts
06-Feb-21 14:09 34.427891 -119.835274 271 13ft 0kts
06-Feb-21 14:10 34.428052 -119.858779 269 327ft 108kts
06-Feb-21 14:11 34.426897 -119.900932 240 995ft 137kts
06-Feb-21 14:12 34.393831 -119.897847 116 1628ft 148kts
06-Feb-21 14:13 34.374609 -119.853750 118 2225ft 144kts
06-Feb-21 14:14 34.356260 -119.813493 118 2999ft 130kts
06-Feb-21 14:15 34.346056 -119.770934 103 3476ft 144kts
06-Feb-21 14:16 34.335501 -119.719905 103 3470ft 161kts
06-Feb-21 14:17 34.324511 -119.666731 103 3472ft 163kts
06-Feb-21 14:18 34.313431 -119.613171 103 3474ft 164kts
06-Feb-21 14:19 34.302318 -119.559557 103 3477ft 164kts
06-Feb-21 14:20 34.292099 -119.510488 103 3479ft 164kts
06-Feb-21 14:21 34.277401 -119.463531 112 3480ft 165kts
06-Feb-21 14:22 34.258765 -119.412647 113 3480ft 165kts
06-Feb-21 14:23 34.239911 -119.362260 113 3514ft 163kts
06-Feb-21 14:24 34.220562 -119.312069 114 3514ft 165kts
06-Feb-21 14:25 34.200881 -119.261949 114 3510ft 165kts
06-Feb-21 14:26 34.181634 -119.212988 114 3512ft 165kts
06-Feb-21 14:27 34.163029 -119.165689 114 3512ft 166kts
06-Feb-21 14:28 34.143202 -119.115319 114 3517ft 166kts
06-Feb-21 14:29 34.116675 -119.069943 135 3519ft 167kts
06-Feb-21 14:30 34.080400 -119.034391 140 3521ft 168kts
06-Feb-21 14:31 34.043628 -118.999333 140 3519ft 168kts
06-Feb-21 14:32 34.007066 -118.964441 140 3519ft 167kts
06-Feb-21 14:33 33.970454 -118.929481 140 3519ft 167kts
06-Feb-21 14:34 33.933913 -118.894601 140 3518ft 167kts
06-Feb-21 14:35 33.895612 -118.862626 145 3517ft 167kts
06-Feb-21 14:36 33.856664 -118.831734 145 3518ft 167kts
06-Feb-21 14:37 33.817820 -118.800936 145 3515ft 167kts
06-Feb-21 14:38 33.778811 -118.770028 145 3516ft 167kts
06-Feb-21 14:39 33.739789 -118.739116 145 3480ft 169kts
06-Feb-21 14:40 33.700558 -118.708054 145 3478ft 168kts
06-Feb-21 14:42 33.665667 -118.679914 144 3478ft 167kts
06-Feb-21 14:43 33.627142 -118.648273 144 3480ft 167kts
06-Feb-21 14:44 33.588899 -118.616302 143 3482ft 167kts
06-Feb-21 14:45 33.550883 -118.583922 143 3486ft 167kts
06-Feb-21 14:46 33.510787 -118.564912 210 3176ft 165kts
06-Feb-21 14:47 33.472320 -118.590891 182 2704ft 158kts
06-Feb-21 14:48 33.435647 -118.570132 132 2584ft 140kts
06-Feb-21 14:49 33.426238 -118.533133 73 2598ft 128kts
06-Feb-21 14:50 33.430321 -118.490827 82 2596ft 128kts
06-Feb-21 14:51 33.440413 -118.450564 60 2600ft 125kts
06-Feb-21 14:52 33.458048 -118.418377 54 2488ft 107kts
06-Feb-21 14:53 33.463749 -118.392567 137 2432ft 91kts
06-Feb-21 14:54 33.441947 -118.389986 194 2306ft 82kts
06-Feb-21 14:55 33.418073 -118.396702 200 2056ft 89kts
06-Feb-21 14:56 33.404125 -118.417306 234 1605ft 33kts
06-Feb-21 14:57 33.402276 -118.419733 68 1605ft 6kts
06-Feb-21 14:58 33.403555 -118.416493 113 1605ft 9kts
06-Feb-21 14:58 33.403630 -118.415649 144 1605ft 0kts
06-Feb-21 15:00 33.403733 -118.415585 146 1605ft 0kts
06-Feb-21 15:01 34.423131 -119.835986 166 13ft 0kts

Navigation Log

Ident Type
Flight plan parsing failed, navigation log unavailable